createdAt,value
2022-07-27T00:01:51.360Z,18.70
2022-07-27T00:04:48.670Z,18.80
2022-07-27T00:07:45.835Z,19.30
2022-07-27T00:10:42.712Z,19.30
2022-07-27T00:13:40.745Z,18.70
2022-07-27T00:16:37.781Z,18.70
2022-07-27T00:19:34.716Z,18.70
2022-07-27T00:22:32.003Z,18.70
2022-07-27T00:25:28.930Z,18.70
2022-07-27T00:28:25.852Z,18.70
2022-07-27T00:31:22.810Z,18.40
2022-07-27T00:34:19.701Z,18.50
2022-07-27T00:37:16.657Z,18.50
2022-07-27T00:40:13.748Z,18.50
2022-07-27T00:43:10.591Z,18.50
2022-07-27T00:46:07.430Z,18.70
2022-07-27T00:49:05.275Z,18.60
2022-07-27T00:52:02.455Z,18.70
2022-07-27T00:55:00.106Z,18.80
2022-07-27T00:57:59.455Z,18.80
2022-07-27T01:00:56.726Z,18.50
2022-07-27T01:03:53.628Z,18.70
2022-07-27T01:06:53.446Z,18.60
2022-07-27T01:09:59.843Z,18.80
2022-07-27T01:12:57.081Z,18.90
2022-07-27T01:15:55.140Z,18.70
2022-07-27T01:18:52.035Z,18.60
2022-07-27T01:21:48.891Z,18.20
2022-07-27T01:24:45.909Z,18.30
2022-07-27T01:27:42.758Z,18.00
2022-07-27T01:30:39.603Z,17.80
2022-07-27T01:33:37.181Z,17.80
2022-07-27T01:36:34.026Z,17.70
2022-07-27T01:39:32.405Z,17.80
2022-07-27T01:42:29.297Z,17.80
2022-07-27T01:45:26.208Z,17.80
2022-07-27T01:48:23.062Z,17.80
2022-07-27T01:51:19.999Z,17.70
2022-07-27T01:54:17.981Z,17.80
2022-07-27T01:57:14.928Z,17.60
2022-07-27T02:00:12.409Z,17.60
2022-07-27T02:03:11.194Z,17.50
2022-07-27T02:06:08.846Z,17.50
2022-07-27T02:09:06.309Z,17.70
2022-07-27T02:12:21.702Z,17.60
2022-07-27T02:15:22.487Z,17.40
2022-07-27T02:18:32.988Z,17.40
2022-07-27T02:21:33.414Z,17.40
2022-07-27T02:24:30.263Z,17.40
2022-07-27T02:27:27.487Z,17.40
2022-07-27T02:30:24.318Z,17.10
2022-07-27T02:33:21.265Z,17.10
2022-07-27T02:36:18.453Z,17.20
2022-07-27T02:39:15.545Z,16.70
2022-07-27T02:42:12.405Z,16.50
2022-07-27T02:45:10.722Z,16.60
2022-07-27T02:48:08.511Z,16.90
2022-07-27T02:51:05.463Z,16.60
2022-07-27T02:54:02.622Z,16.50
2022-07-27T02:57:04.981Z,16.70
2022-07-27T03:00:02.218Z,16.40
2022-07-27T03:02:59.066Z,16.20
2022-07-27T03:05:55.904Z,16.20
2022-07-27T03:08:52.783Z,16.20
2022-07-27T03:11:49.641Z,16.10
2022-07-27T03:14:46.996Z,16.30
2022-07-27T03:17:46.076Z,16.20
2022-07-27T03:20:44.219Z,16.30
2022-07-27T03:23:41.603Z,16.20
2022-07-27T03:26:38.547Z,16.10
2022-07-27T03:29:35.403Z,16.10
2022-07-27T03:32:32.256Z,16.10
2022-07-27T03:35:29.103Z,16.30
2022-07-27T03:38:25.975Z,16.10
2022-07-27T03:41:22.982Z,16.10
2022-07-27T03:44:19.812Z,16.00
2022-07-27T03:47:16.643Z,15.80
2022-07-27T03:50:13.473Z,16.10
2022-07-27T03:53:10.330Z,16.10
2022-07-27T03:56:07.227Z,16.10
2022-07-27T03:59:04.142Z,16.00
2022-07-27T04:02:01.111Z,16.00
2022-07-27T04:04:58.133Z,16.10
2022-07-27T04:07:55.137Z,16.00
2022-07-27T04:10:52.063Z,16.00
2022-07-27T04:13:50.541Z,16.00
2022-07-27T04:16:47.571Z,15.90
2022-07-27T04:19:44.572Z,15.90
2022-07-27T04:22:41.540Z,15.90
2022-07-27T04:25:38.480Z,15.80
2022-07-27T04:28:35.493Z,15.80
2022-07-27T04:31:32.689Z,16.10
2022-07-27T04:34:29.506Z,16.20
2022-07-27T04:37:26.367Z,16.20
2022-07-27T04:40:23.359Z,16.10
2022-07-27T04:43:20.185Z,16.00
2022-07-27T04:46:17.808Z,15.90
2022-07-27T04:49:14.982Z,16.10
2022-07-27T04:52:16.145Z,16.00
2022-07-27T04:55:13.470Z,16.00
2022-07-27T04:58:11.180Z,16.10
2022-07-27T05:01:10.839Z,16.10
2022-07-27T05:04:07.937Z,16.20
2022-07-27T05:07:04.814Z,16.40
2022-07-27T05:10:01.661Z,16.70
2022-07-27T05:12:58.645Z,16.60
2022-07-27T05:15:56.109Z,16.60
2022-07-27T05:18:53.045Z,16.70
2022-07-27T05:21:50.518Z,16.80
2022-07-27T05:24:47.357Z,16.60
2022-07-27T05:27:53.882Z,16.80
2022-07-27T05:30:51.776Z,16.90
2022-07-27T05:33:51.338Z,16.70
2022-07-27T05:36:50.259Z,16.50
2022-07-27T05:39:47.254Z,16.30
2022-07-27T05:42:44.234Z,16.50
2022-07-27T05:45:41.193Z,16.50
2022-07-27T05:48:38.104Z,16.70
2022-07-27T05:51:35.320Z,16.80
2022-07-27T05:54:32.188Z,16.60
2022-07-27T05:57:29.290Z,16.90
2022-07-27T06:00:26.202Z,16.70
2022-07-27T06:03:23.902Z,16.70
2022-07-27T06:06:39.616Z,16.50
2022-07-27T06:09:36.573Z,16.90
2022-07-27T06:12:44.482Z,16.90
2022-07-27T06:15:41.470Z,17.00
2022-07-27T06:18:38.404Z,17.00
2022-07-27T06:21:35.297Z,16.90
2022-07-27T06:24:32.752Z,17.20
2022-07-27T06:27:29.824Z,17.10
2022-07-27T06:30:27.688Z,17.20
2022-07-27T06:33:31.636Z,17.10
2022-07-27T06:36:28.556Z,17.40
2022-07-27T06:39:25.931Z,17.40
2022-07-27T06:42:22.774Z,17.30
2022-07-27T06:45:19.711Z,17.20
2022-07-27T06:48:17.324Z,16.90
2022-07-27T06:51:14.211Z,17.20
2022-07-27T06:54:11.992Z,17.40
2022-07-27T06:57:08.830Z,17.30
2022-07-27T07:00:07.204Z,17.30
2022-07-27T07:03:06.008Z,17.50
2022-07-27T07:06:03.237Z,17.40
2022-07-27T07:09:00.562Z,17.30
2022-07-27T07:11:57.472Z,17.70
2022-07-27T07:14:54.320Z,17.90
2022-07-27T07:17:51.208Z,18.10
2022-07-27T07:20:48.119Z,18.00
2022-07-27T07:23:45.003Z,17.60
2022-07-27T07:26:42.004Z,17.70
2022-07-27T07:29:38.965Z,17.80
2022-07-27T07:32:35.839Z,17.60
2022-07-27T07:35:32.911Z,18.00
2022-07-27T07:38:29.762Z,17.90
2022-07-27T07:41:26.669Z,18.10
2022-07-27T07:44:23.534Z,18.10
2022-07-27T07:47:20.553Z,18.20
2022-07-27T07:50:18.643Z,18.40
2022-07-27T07:53:16.048Z,18.50
2022-07-27T07:56:14.207Z,18.40
2022-07-27T07:59:11.624Z,18.70
2022-07-27T08:02:08.821Z,18.70
2022-07-27T08:05:06.555Z,18.70
2022-07-27T08:08:03.570Z,18.70
2022-07-27T08:11:00.443Z,18.60
2022-07-27T08:13:57.415Z,18.90
2022-07-27T08:16:54.246Z,19.00
2022-07-27T08:19:51.113Z,19.10
2022-07-27T08:22:48.033Z,19.20
2022-07-27T08:25:45.407Z,19.10
2022-07-27T08:28:42.305Z,19.20
2022-07-27T08:31:52.794Z,19.20
2022-07-27T08:34:50.438Z,19.20
2022-07-27T08:37:47.959Z,19.00
2022-07-27T08:40:49.266Z,19.10
2022-07-27T08:43:49.147Z,19.40
2022-07-27T08:46:46.484Z,19.60
2022-07-27T08:49:44.508Z,19.60
2022-07-27T08:52:41.495Z,19.80
2022-07-27T08:55:42.077Z,20.00
2022-07-27T08:58:38.873Z,19.70
2022-07-27T09:01:36.523Z,19.50
2022-07-27T09:04:33.616Z,19.90
2022-07-27T09:07:32.060Z,19.80
2022-07-27T09:10:32.524Z,20.00
2022-07-27T09:13:33.552Z,20.20
2022-07-27T09:16:58.106Z,20.50
2022-07-27T09:20:00.462Z,20.80
2022-07-27T09:22:57.322Z,21.20
2022-07-27T09:26:31.326Z,21.10
2022-07-27T09:29:34.654Z,21.30
2022-07-27T09:32:31.823Z,21.40
2022-07-27T09:35:34.699Z,21.30
2022-07-27T09:38:31.652Z,21.50
2022-07-27T09:41:55.669Z,21.60
2022-07-27T09:44:56.491Z,21.90
2022-07-27T09:47:54.018Z,22.00
2022-07-27T09:51:02.691Z,22.30
2022-07-27T09:54:10.709Z,22.60
2022-07-27T09:57:07.953Z,22.80
2022-07-27T10:00:13.882Z,22.80
2022-07-27T10:03:11.089Z,22.80
2022-07-27T10:06:09.834Z,22.70
2022-07-27T10:09:06.789Z,23.00
2022-07-27T10:12:04.796Z,23.50
2022-07-27T10:15:01.774Z,23.70
2022-07-27T10:18:12.513Z,24.00
2022-07-27T10:21:11.529Z,24.10
2022-07-27T10:24:39.420Z,24.00
2022-07-27T10:27:36.284Z,23.30
2022-07-27T10:30:34.814Z,23.80
2022-07-27T10:33:44.474Z,23.80
2022-07-27T10:36:51.792Z,24.00
2022-07-27T10:40:16.939Z,23.80
2022-07-27T10:43:22.412Z,24.00
2022-07-27T10:46:21.097Z,24.00
2022-07-27T10:49:24.735Z,24.50
2022-07-27T10:52:56.031Z,24.60
2022-07-27T10:55:52.994Z,24.40
2022-07-27T10:58:51.506Z,23.90
2022-07-27T11:01:58.341Z,24.30
2022-07-27T11:04:55.379Z,24.30
2022-07-27T11:08:23.608Z,24.50
2022-07-27T11:11:20.852Z,24.60
2022-07-27T11:14:18.945Z,24.70
2022-07-27T11:17:50.836Z,25.70
2022-07-27T11:20:40.612Z,24.90
2022-07-27T11:23:52.657Z,24.90
2022-07-27T11:26:52.783Z,24.00
2022-07-27T11:29:49.637Z,24.30
2022-07-27T11:32:46.516Z,24.80
2022-07-27T11:35:54.177Z,24.10
2022-07-27T11:38:55.139Z,23.70
2022-07-27T11:42:11.840Z,23.90
2022-07-27T11:45:09.656Z,23.40
2022-07-27T11:48:17.787Z,22.70
2022-07-27T11:51:18.218Z,22.80
2022-07-27T11:54:27.686Z,24.10
2022-07-27T11:57:33.807Z,24.30
2022-07-27T12:00:41.866Z,24.20
2022-07-27T12:03:47.108Z,24.30
2022-07-27T12:07:05.730Z,23.80
2022-07-27T12:10:07.031Z,22.70
2022-07-27T12:13:03.999Z,22.80
2022-07-27T12:16:01.032Z,23.10
2022-07-27T12:18:57.911Z,23.30
2022-07-27T12:21:56.132Z,23.40
2022-07-27T12:24:54.454Z,23.40
2022-07-27T12:28:07.646Z,23.10
2022-07-27T12:31:17.964Z,23.60
2022-07-27T12:34:15.416Z,24.30
2022-07-27T12:37:13.603Z,23.70
2022-07-27T12:40:18.109Z,23.60
2022-07-27T12:43:23.689Z,24.00
2022-07-27T12:46:20.653Z,24.00
2022-07-27T12:49:17.981Z,24.00
2022-07-27T12:52:16.226Z,23.90
2022-07-27T12:55:15.893Z,23.60
2022-07-27T12:58:14.318Z,22.40
2022-07-27T13:01:11.291Z,22.50
2022-07-27T13:04:08.678Z,21.90
2022-07-27T13:07:05.535Z,22.00
2022-07-27T13:10:04.809Z,22.00
2022-07-27T13:13:01.685Z,22.70
2022-07-27T13:15:58.573Z,22.50
2022-07-27T13:18:55.419Z,23.10
2022-07-27T13:21:52.387Z,23.70
2022-07-27T13:24:49.306Z,23.10
2022-07-27T13:27:47.945Z,23.00
2022-07-27T13:30:45.131Z,23.00
2022-07-27T13:33:42.011Z,24.30
2022-07-27T13:36:40.698Z,23.70
2022-07-27T13:39:37.697Z,24.10
2022-07-27T13:42:34.711Z,24.90
2022-07-27T13:45:42.256Z,24.50
2022-07-27T13:48:40.551Z,24.70
2022-07-27T13:51:37.438Z,24.10
2022-07-27T13:54:34.286Z,23.50
2022-07-27T13:57:31.143Z,24.10
2022-07-27T14:00:28.072Z,23.90
2022-07-27T14:03:24.977Z,23.30
2022-07-27T14:06:24.011Z,23.10
2022-07-27T14:09:42.546Z,23.40
2022-07-27T14:12:39.531Z,23.60
2022-07-27T14:15:50.736Z,23.10
2022-07-27T14:18:53.050Z,22.70
2022-07-27T14:21:49.902Z,22.90
2022-07-27T14:24:46.772Z,24.00
2022-07-27T14:27:43.715Z,23.60
2022-07-27T14:30:40.662Z,23.70
2022-07-27T14:33:39.743Z,24.00
2022-07-27T14:36:37.395Z,23.80
2022-07-27T14:39:34.261Z,23.00
2022-07-27T14:42:31.437Z,23.10
2022-07-27T14:45:45.043Z,23.20
2022-07-27T14:49:05.266Z,23.00
2022-07-27T14:52:00.200Z,23.00
2022-07-27T14:54:59.624Z,22.80
2022-07-27T14:57:56.460Z,23.20
2022-07-27T15:00:53.643Z,23.40
2022-07-27T15:03:50.691Z,24.10
2022-07-27T15:06:47.554Z,23.70
2022-07-27T15:09:44.727Z,23.50
2022-07-27T15:12:41.766Z,23.80
2022-07-27T15:15:38.734Z,23.80
2022-07-27T15:18:38.657Z,23.40
2022-07-27T15:21:36.033Z,23.40
2022-07-27T15:24:37.961Z,22.90
2022-07-27T15:27:35.826Z,23.20
2022-07-27T15:30:37.883Z,22.50
2022-07-27T15:33:35.971Z,23.30
2022-07-27T15:36:36.263Z,23.30
2022-07-27T15:39:37.638Z,22.90
2022-07-27T15:42:37.791Z,23.50
2022-07-27T15:45:38.895Z,23.30
2022-07-27T15:48:35.935Z,23.00
2022-07-27T15:51:32.947Z,23.50
2022-07-27T15:54:33.412Z,23.00
2022-07-27T15:57:31.734Z,23.20
2022-07-27T16:00:28.962Z,23.10
2022-07-27T16:03:26.149Z,22.80
2022-07-27T16:06:23.886Z,23.20
2022-07-27T16:09:20.847Z,23.90
2022-07-27T16:12:19.461Z,24.10
2022-07-27T16:15:16.388Z,24.00
2022-07-27T16:18:13.360Z,23.60
2022-07-27T16:21:10.206Z,22.80
2022-07-27T16:24:07.545Z,22.30
2022-07-27T16:27:06.561Z,22.50
2022-07-27T16:30:04.853Z,22.80
2022-07-27T16:33:03.423Z,23.60
2022-07-27T16:36:00.494Z,23.60
2022-07-27T16:38:57.346Z,22.90
2022-07-27T16:41:54.988Z,23.30
2022-07-27T16:44:51.854Z,24.10
2022-07-27T16:47:48.782Z,23.30
2022-07-27T16:50:45.632Z,23.20
2022-07-27T16:53:45.889Z,22.80
2022-07-27T16:56:42.764Z,23.10
2022-07-27T16:59:41.553Z,22.60
2022-07-27T17:02:38.397Z,22.80
2022-07-27T17:05:35.508Z,22.40
2022-07-27T17:08:32.362Z,21.90
2022-07-27T17:11:29.363Z,21.80
2022-07-27T17:14:26.208Z,22.00
2022-07-27T17:17:23.091Z,22.40
2022-07-27T17:20:28.020Z,22.30
2022-07-27T17:23:37.755Z,22.00
2022-07-27T17:26:35.101Z,22.20
2022-07-27T17:29:31.935Z,22.20
2022-07-27T17:32:28.767Z,22.00
2022-07-27T17:35:25.669Z,22.10
2022-07-27T17:38:22.605Z,22.00
2022-07-27T17:41:24.662Z,22.00
2022-07-27T17:44:22.654Z,21.60
2022-07-27T17:47:19.496Z,21.90
2022-07-27T17:50:16.351Z,21.60
2022-07-27T17:53:13.214Z,21.50
2022-07-27T17:56:11.074Z,21.30
2022-07-27T17:59:34.617Z,21.20
2022-07-27T18:02:25.030Z,21.30
2022-07-27T18:05:21.948Z,21.20
2022-07-27T18:08:19.026Z,20.80
2022-07-27T18:11:16.281Z,20.50
2022-07-27T18:14:13.402Z,20.60
2022-07-27T18:17:10.282Z,20.40
2022-07-27T18:20:09.822Z,20.80
2022-07-27T18:23:06.978Z,20.90
2022-07-27T18:26:03.921Z,20.60
2022-07-27T18:29:00.861Z,20.40
2022-07-27T18:31:57.702Z,19.90
2022-07-27T18:34:55.539Z,19.70
2022-07-27T18:37:52.854Z,19.70
2022-07-27T18:40:50.341Z,19.40
2022-07-27T18:43:53.538Z,19.20
2022-07-27T18:46:50.371Z,19.10
2022-07-27T18:49:47.217Z,19.30
2022-07-27T18:52:44.100Z,19.10
2022-07-27T18:55:40.955Z,19.10
2022-07-27T18:58:38.177Z,18.90
2022-07-27T19:01:35.368Z,18.80
2022-07-27T19:04:32.338Z,18.60
2022-07-27T19:07:30.814Z,18.50
2022-07-27T19:10:29.860Z,18.30
2022-07-27T19:13:26.798Z,18.20
2022-07-27T19:16:24.949Z,18.10
2022-07-27T19:19:23.328Z,17.90
2022-07-27T19:22:20.974Z,17.80
2022-07-27T19:25:17.824Z,17.60
2022-07-27T19:28:18.898Z,17.60
2022-07-27T19:31:22.781Z,17.20
2022-07-27T19:34:20.907Z,17.10
2022-07-27T19:37:17.794Z,17.00
2022-07-27T19:40:42.695Z,17.00
2022-07-27T19:43:33.624Z,16.80
2022-07-27T19:46:30.656Z,16.90
2022-07-27T19:49:28.397Z,16.80
2022-07-27T19:52:25.314Z,16.80
2022-07-27T19:55:22.147Z,16.70
2022-07-27T19:58:19.079Z,16.80
2022-07-27T20:01:16.462Z,16.70
2022-07-27T20:04:13.347Z,16.60
2022-07-27T20:07:10.337Z,16.50
2022-07-27T20:10:07.534Z,16.40
2022-07-27T20:13:05.200Z,16.60
2022-07-27T20:16:02.400Z,16.40
2022-07-27T20:19:00.222Z,16.10
2022-07-27T20:21:57.496Z,16.00
2022-07-27T20:24:54.315Z,15.90
2022-07-27T20:27:52.306Z,15.80
2022-07-27T20:30:49.305Z,15.70
2022-07-27T20:33:46.410Z,15.60
2022-07-27T20:36:43.264Z,15.70
2022-07-27T20:39:40.340Z,15.90
2022-07-27T20:42:41.524Z,15.90
2022-07-27T20:45:38.543Z,15.70
2022-07-27T20:48:35.478Z,15.50
2022-07-27T20:51:32.369Z,15.50
2022-07-27T20:54:29.812Z,15.30
2022-07-27T20:57:26.901Z,15.20
2022-07-27T21:00:27.256Z,15.20
2022-07-27T21:03:26.478Z,15.30
2022-07-27T21:06:23.312Z,15.20
2022-07-27T21:09:21.831Z,15.10
2022-07-27T21:12:19.182Z,15.00
2022-07-27T21:15:16.595Z,14.90
2022-07-27T21:18:13.435Z,14.90
2022-07-27T21:21:10.298Z,14.80
2022-07-27T21:24:17.557Z,14.70
2022-07-27T21:27:15.425Z,14.70
2022-07-27T21:30:16.607Z,14.90
2022-07-27T21:33:13.549Z,14.80
2022-07-27T21:36:10.468Z,14.80
2022-07-27T21:39:07.330Z,14.80
2022-07-27T21:42:04.342Z,14.70
2022-07-27T21:45:01.560Z,14.70
2022-07-27T21:47:58.458Z,14.90
2022-07-27T21:50:55.308Z,15.00
2022-07-27T21:53:52.514Z,14.90
2022-07-27T21:56:50.741Z,15.00
2022-07-27T21:59:47.712Z,15.00
2022-07-27T22:02:44.608Z,15.00
2022-07-27T22:05:41.492Z,14.80
2022-07-27T22:08:38.939Z,14.70
2022-07-27T22:11:35.797Z,14.60
2022-07-27T22:14:32.722Z,14.50
2022-07-27T22:17:29.538Z,14.50
2022-07-27T22:20:26.393Z,14.50
2022-07-27T22:23:23.892Z,14.50
2022-07-27T22:26:20.758Z,14.40
2022-07-27T22:29:17.645Z,14.50
2022-07-27T22:32:14.542Z,14.30
2022-07-27T22:35:11.476Z,14.10
2022-07-27T22:38:08.334Z,14.30
2022-07-27T22:41:05.318Z,14.20
2022-07-27T22:44:02.251Z,14.20
2022-07-27T22:46:59.086Z,14.10
2022-07-27T22:49:55.929Z,14.20
2022-07-27T22:52:55.028Z,14.00
2022-07-27T22:55:51.882Z,13.90
2022-07-27T22:58:48.741Z,14.00
2022-07-27T23:01:47.696Z,13.90
2022-07-27T23:04:45.185Z,13.90
2022-07-27T23:07:42.048Z,13.80
2022-07-27T23:10:47.774Z,13.70
2022-07-27T23:13:44.669Z,13.70
2022-07-27T23:16:42.510Z,13.70
2022-07-27T23:19:39.426Z,13.60
2022-07-27T23:22:36.261Z,13.50
2022-07-27T23:25:36.416Z,13.50
2022-07-27T23:28:33.484Z,13.40
2022-07-27T23:31:30.555Z,13.40
2022-07-27T23:34:29.161Z,13.30
2022-07-27T23:37:26.336Z,13.40
2022-07-27T23:40:23.537Z,13.30
2022-07-27T23:43:20.361Z,13.30
2022-07-27T23:46:17.274Z,13.30
2022-07-27T23:49:14.242Z,13.30
2022-07-27T23:52:11.106Z,13.20
2022-07-27T23:55:08.133Z,13.20
2022-07-27T23:58:04.971Z,13.10
